sensor_id;sensor_type;location;lat;lon;timestamp;pressure;altitude;pressure_sealevel;temperature;humidity
29825;BME280;16713;52.916;12.834;2023-08-06T00:00:28;100256.44;;;16.16;77.36
29825;BME280;16713;52.916;12.834;2023-08-06T00:02:55;100255.53;;;16.29;77.52
29825;BME280;16713;52.916;12.834;2023-08-06T00:05:22;100247.25;;;16.29;77.18
29825;BME280;16713;52.916;12.834;2023-08-06T00:07:48;100253.13;;;16.42;77.25
29825;BME280;16713;52.916;12.834;2023-08-06T00:10:16;100242.84;;;16.46;76.93
29825;BME280;16713;52.916;12.834;2023-08-06T00:12:43;100242.13;;;16.35;76.86
29825;BME280;16713;52.916;12.834;2023-08-06T00:15:10;100247.97;;;16.44;76.83
29825;BME280;16713;52.916;12.834;2023-08-06T00:17:37;100243.34;;;16.23;77.89
29825;BME280;16713;52.916;12.834;2023-08-06T00:20:04;100240.91;;;16.39;76.37
29825;BME280;16713;52.916;12.834;2023-08-06T00:22:33;100236.97;;;16.37;77.46
29825;BME280;16713;52.916;12.834;2023-08-06T00:25:00;100238.13;;;16.32;77.46
29825;BME280;16713;52.916;12.834;2023-08-06T00:27:27;100245.69;;;16.25;77.60
29825;BME280;16713;52.916;12.834;2023-08-06T00:29:53;100242.81;;;16.49;76.88
29825;BME280;16713;52.916;12.834;2023-08-06T00:32:20;100231.94;;;16.10;78.10
29825;BME280;16713;52.916;12.834;2023-08-06T00:34:47;100230.34;;;16.09;78.71
29825;BME280;16713;52.916;12.834;2023-08-06T00:37:16;100214.53;;;16.17;78.62
29825;BME280;16713;52.916;12.834;2023-08-06T00:39:43;100217.31;;;16.06;78.04
29825;BME280;16713;52.916;12.834;2023-08-06T00:42:11;100209.44;;;16.01;77.97
29825;BME280;16713;52.916;12.834;2023-08-06T00:44:38;100207.91;;;15.97;78.77
29825;BME280;16713;52.916;12.834;2023-08-06T00:47:06;100205.94;;;15.97;78.65
29825;BME280;16713;52.916;12.834;2023-08-06T00:49:33;100195.19;;;16.06;78.32
29825;BME280;16713;52.916;12.834;2023-08-06T00:52:00;100197.22;;;15.95;78.90
29825;BME280;16713;52.916;12.834;2023-08-06T00:54:27;100205.31;;;16.38;77.58
29825;BME280;16713;52.916;12.834;2023-08-06T00:56:54;100198.31;;;16.16;78.42
29825;BME280;16713;52.916;12.834;2023-08-06T00:59:20;100189.66;;;16.10;78.08
29825;BME280;16713;52.916;12.834;2023-08-06T01:01:47;100186.41;;;16.22;77.88
29825;BME280;16713;52.916;12.834;2023-08-06T01:04:14;100190.47;;;16.00;78.97
29825;BME280;16713;52.916;12.834;2023-08-06T01:06:46;100187.31;;;16.05;78.96
29825;BME280;16713;52.916;12.834;2023-08-06T01:09:21;100183.41;;;15.95;78.85
29825;BME280;16713;52.916;12.834;2023-08-06T01:12:12;100186.59;;;15.90;79.53
29825;BME280;16713;52.916;12.834;2023-08-06T01:17:20;100173.34;;;16.23;78.67
29825;BME280;16713;52.916;12.834;2023-08-06T01:19:46;100175.50;;;16.59;76.53
29825;BME280;16713;52.916;12.834;2023-08-06T01:22:13;100165.19;;;16.01;78.63
29825;BME280;16713;52.916;12.834;2023-08-06T01:24:40;100156.94;;;15.98;78.37
29825;BME280;16713;52.916;12.834;2023-08-06T01:27:11;100159.81;;;16.39;77.64
29825;BME280;16713;52.916;12.834;2023-08-06T01:29:45;100155.19;;;16.18;77.86
29825;BME280;16713;52.916;12.834;2023-08-06T01:32:14;100161.44;;;16.29;78.02
29825;BME280;16713;52.916;12.834;2023-08-06T01:34:43;100163.78;;;16.41;77.90
29825;BME280;16713;52.916;12.834;2023-08-06T01:37:11;100148.44;;;16.23;78.02
29825;BME280;16713;52.916;12.834;2023-08-06T01:39:42;100152.38;;;16.29;77.94
29825;BME280;16713;52.916;12.834;2023-08-06T01:42:09;100151.22;;;16.23;78.33
29825;BME280;16713;52.916;12.834;2023-08-06T01:44:35;100154.75;;;16.27;78.23
29825;BME280;16713;52.916;12.834;2023-08-06T01:47:02;100152.41;;;16.22;77.52
29825;BME280;16713;52.916;12.834;2023-08-06T01:49:28;100147.69;;;16.19;78.04
29825;BME280;16713;52.916;12.834;2023-08-06T01:51:55;100146.06;;;16.25;77.93
29825;BME280;16713;52.916;12.834;2023-08-06T01:54:21;100142.56;;;16.17;78.44
29825;BME280;16713;52.916;12.834;2023-08-06T01:56:49;100145.63;;;16.33;77.89
29825;BME280;16713;52.916;12.834;2023-08-06T01:59:15;100137.47;;;16.12;78.36
29825;BME280;16713;52.916;12.834;2023-08-06T02:01:42;100138.97;;;16.24;78.31
29825;BME280;16713;52.916;12.834;2023-08-06T02:04:08;100135.50;;;16.13;78.53
29825;BME280;16713;52.916;12.834;2023-08-06T02:06:34;100136.66;;;16.11;78.00
29825;BME280;16713;52.916;12.834;2023-08-06T02:09:01;100129.84;;;16.27;78.07
29825;BME280;16713;52.916;12.834;2023-08-06T02:11:27;100117.41;;;15.97;79.42
29825;BME280;16713;52.916;12.834;2023-08-06T02:13:54;100124.75;;;16.22;78.40
29825;BME280;16713;52.916;12.834;2023-08-06T02:16:20;100127.13;;;16.20;78.11
29825;BME280;16713;52.916;12.834;2023-08-06T02:18:47;100127.41;;;16.32;78.03
29825;BME280;16713;52.916;12.834;2023-08-06T02:21:13;100119.38;;;15.97;79.26
29825;BME280;16713;52.916;12.834;2023-08-06T02:23:40;100129.50;;;16.18;78.37
29825;BME280;16713;52.916;12.834;2023-08-06T02:26:06;100128.38;;;16.11;78.19
29825;BME280;16713;52.916;12.834;2023-08-06T02:28:33;100123.09;;;16.31;77.91
29825;BME280;16713;52.916;12.834;2023-08-06T02:30:59;100119.34;;;16.04;78.45
29825;BME280;16713;52.916;12.834;2023-08-06T02:33:26;100126.31;;;16.23;77.97
29825;BME280;16713;52.916;12.834;2023-08-06T02:35:59;100125.94;;;16.21;78.63
29825;BME280;16713;52.916;12.834;2023-08-06T02:38:25;100125.56;;;16.19;78.12
29825;BME280;16713;52.916;12.834;2023-08-06T02:40:52;100117.47;;;16.42;77.59
29825;BME280;16713;52.916;12.834;2023-08-06T02:43:18;100118.31;;;16.39;77.38
29825;BME280;16713;52.916;12.834;2023-08-06T02:45:45;100109.19;;;16.42;77.94
29825;BME280;16713;52.916;12.834;2023-08-06T02:48:11;100105.69;;;16.31;77.83
29825;BME280;16713;52.916;12.834;2023-08-06T02:50:39;100098.72;;;16.12;78.78
29825;BME280;16713;52.916;12.834;2023-08-06T02:53:06;100096.16;;;16.39;78.25
29825;BME280;16713;52.916;12.834;2023-08-06T02:55:34;100097.38;;;16.34;78.23
29825;BME280;16713;52.916;12.834;2023-08-06T02:58:01;100091.28;;;16.02;79.65
29825;BME280;16713;52.916;12.834;2023-08-06T03:00:28;100085.41;;;15.96;79.03
29825;BME280;16713;52.916;12.834;2023-08-06T03:02:54;100086.97;;;16.01;79.47
29825;BME280;16713;52.916;12.834;2023-08-06T03:05:21;100085.22;;;16.21;79.19
29825;BME280;16713;52.916;12.834;2023-08-06T03:07:48;100082.59;;;16.03;79.68
29825;BME280;16713;52.916;12.834;2023-08-06T03:10:14;100077.59;;;15.84;79.80
29825;BME280;16713;52.916;12.834;2023-08-06T03:12:41;100076.31;;;15.99;79.52
29825;BME280;16713;52.916;12.834;2023-08-06T03:15:07;100077.03;;;16.07;79.50
29825;BME280;16713;52.916;12.834;2023-08-06T03:17:34;100059.84;;;15.78;79.98
29825;BME280;16713;52.916;12.834;2023-08-06T03:20:00;100060.13;;;15.94;79.93
29825;BME280;16713;52.916;12.834;2023-08-06T03:22:27;100054.72;;;15.80;79.87
29825;BME280;16713;52.916;12.834;2023-08-06T03:24:53;100043.72;;;15.70;80.72
29825;BME280;16713;52.916;12.834;2023-08-06T03:27:20;100056.66;;;15.83;80.50
29825;BME280;16713;52.916;12.834;2023-08-06T03:29:49;100058.63;;;15.86;79.81
29825;BME280;16713;52.916;12.834;2023-08-06T03:32:16;100064.53;;;15.88;80.30
29825;BME280;16713;52.916;12.834;2023-08-06T03:34:43;100064.16;;;15.86;80.30
29825;BME280;16713;52.916;12.834;2023-08-06T03:37:09;100059.75;;;15.89;80.07
29825;BME280;16713;52.916;12.834;2023-08-06T03:39:35;100059.34;;;15.94;79.97
29825;BME280;16713;52.916;12.834;2023-08-06T03:42:02;100056.81;;;16.13;79.56
29825;BME280;16713;52.916;12.834;2023-08-06T03:44:28;100048.28;;;15.94;79.63
29825;BME280;16713;52.916;12.834;2023-08-06T03:46:55;100055.34;;;15.98;80.07
29825;BME280;16713;52.916;12.834;2023-08-06T03:49:21;100039.31;;;15.76;80.57
29825;BME280;16713;52.916;12.834;2023-08-06T03:51:48;100043.25;;;15.82;81.13
29825;BME280;16713;52.916;12.834;2023-08-06T03:54:14;100036.06;;;15.88;80.33
29825;BME280;16713;52.916;12.834;2023-08-06T03:56:41;100049.81;;;15.98;80.19
29825;BME280;16713;52.916;12.834;2023-08-06T03:59:07;100042.34;;;15.95;79.61
29825;BME280;16713;52.916;12.834;2023-08-06T04:01:34;100034.06;;;15.92;80.81
29825;BME280;16713;52.916;12.834;2023-08-06T04:04:00;100023.72;;;16.03;80.55
29825;BME280;16713;52.916;12.834;2023-08-06T04:06:27;100025.69;;;16.02;80.42
29825;BME280;16713;52.916;12.834;2023-08-06T04:08:53;100027.44;;;16.27;79.14
29825;BME280;16713;52.916;12.834;2023-08-06T04:11:19;100020.28;;;15.88;80.61
29825;BME280;16713;52.916;12.834;2023-08-06T04:13:46;100015.69;;;16.16;79.71
29825;BME280;16713;52.916;12.834;2023-08-06T04:16:12;100008.72;;;16.00;80.11
29825;BME280;16713;52.916;12.834;2023-08-06T04:18:41;100006.31;;;16.06;79.80
29825;BME280;16713;52.916;12.834;2023-08-06T04:21:07;100000.88;;;15.92;79.79
29825;BME280;16713;52.916;12.834;2023-08-06T04:23:34;100002.31;;;16.07;80.02
29825;BME280;16713;52.916;12.834;2023-08-06T04:26:00;99995.13;;;16.17;78.93
29825;BME280;16713;52.916;12.834;2023-08-06T04:28:27;99993.22;;;16.06;79.67
29825;BME280;16713;52.916;12.834;2023-08-06T04:30:53;99984.72;;;15.87;80.41
29825;BME280;16713;52.916;12.834;2023-08-06T04:33:20;99993.22;;;16.06;80.40
29825;BME280;16713;52.916;12.834;2023-08-06T04:35:47;99990.53;;;16.03;79.93
29825;BME280;16713;52.916;12.834;2023-08-06T04:38:13;99989.38;;;15.97;80.73
29825;BME280;16713;52.916;12.834;2023-08-06T04:40:40;99982.22;;;16.03;80.53
29825;BME280;16713;52.916;12.834;2023-08-06T04:43:07;99979.91;;;15.94;80.47
29825;BME280;16713;52.916;12.834;2023-08-06T04:45:33;99977.28;;;16.21;80.02
29825;BME280;16713;52.916;12.834;2023-08-06T04:47:59;99975.69;;;16.24;79.77
29825;BME280;16713;52.916;12.834;2023-08-06T04:50:26;99973.78;;;16.17;80.51
29825;BME280;16713;52.916;12.834;2023-08-06T04:52:53;99969.50;;;16.13;79.82
29825;BME280;16713;52.916;12.834;2023-08-06T04:55:19;99972.84;;;16.34;79.25
29825;BME280;16713;52.916;12.834;2023-08-06T04:57:46;99968.28;;;16.13;80.42
29825;BME280;16713;52.916;12.834;2023-08-06T05:00:12;99965.81;;;16.23;80.27
29825;BME280;16713;52.916;12.834;2023-08-06T05:02:41;99964.31;;;16.14;79.94
29825;BME280;16713;52.916;12.834;2023-08-06T05:05:07;99967.50;;;16.09;80.67
29825;BME280;16713;52.916;12.834;2023-08-06T05:07:34;99975.19;;;16.32;79.95
29825;BME280;16713;52.916;12.834;2023-08-06T05:10:00;99972.09;;;16.27;79.74
29825;BME280;16713;52.916;12.834;2023-08-06T05:12:27;99967.81;;;16.22;80.72
29825;BME280;16713;52.916;12.834;2023-08-06T05:14:53;99965.34;;;16.35;80.05
29825;BME280;16713;52.916;12.834;2023-08-06T05:17:20;99965.16;;;16.08;81.40
29825;BME280;16713;52.916;12.834;2023-08-06T05:19:47;99962.84;;;16.03;81.74
29825;BME280;16713;52.916;12.834;2023-08-06T05:22:13;99962.53;;;15.94;82.54
29825;BME280;16713;52.916;12.834;2023-08-06T05:24:39;99958.44;;;16.09;82.77
29825;BME280;16713;52.916;12.834;2023-08-06T05:27:06;99966.59;;;16.23;81.39
29825;BME280;16713;52.916;12.834;2023-08-06T05:29:32;99957.03;;;16.31;80.41
29825;BME280;16713;52.916;12.834;2023-08-06T05:31:59;99957.03;;;16.35;81.34
29825;BME280;16713;52.916;12.834;2023-08-06T05:34:25;99959.31;;;16.43;81.08
29825;BME280;16713;52.916;12.834;2023-08-06T05:36:52;99958.31;;;16.23;81.10
29825;BME280;16713;52.916;12.834;2023-08-06T05:39:19;99949.09;;;16.33;81.04
29825;BME280;16713;52.916;12.834;2023-08-06T05:41:45;99948.31;;;16.36;81.74
29825;BME280;16713;52.916;12.834;2023-08-06T05:44:12;99944.03;;;16.28;81.68
29825;BME280;16713;52.916;12.834;2023-08-06T05:46:38;99938.03;;;16.33;81.21
29825;BME280;16713;52.916;12.834;2023-08-06T05:49:05;99938.06;;;16.30;81.46
29825;BME280;16713;52.916;12.834;2023-08-06T05:51:31;99936.88;;;16.31;81.14
29825;BME280;16713;52.916;12.834;2023-08-06T05:53:58;99933.31;;;16.30;81.46
29825;BME280;16713;52.916;12.834;2023-08-06T05:56:24;99929.50;;;16.17;82.10
29825;BME280;16713;52.916;12.834;2023-08-06T05:58:50;99932.38;;;16.47;81.52
29825;BME280;16713;52.916;12.834;2023-08-06T06:01:19;99924.25;;;16.63;81.31
29825;BME280;16713;52.916;12.834;2023-08-06T06:03:45;99933.63;;;16.73;81.09
29825;BME280;16713;52.916;12.834;2023-08-06T06:06:12;99934.31;;;16.50;80.98
29825;BME280;16713;52.916;12.834;2023-08-06T06:08:42;99928.84;;;16.77;80.99
29825;BME280;16713;52.916;12.834;2023-08-06T06:11:08;99935.53;;;16.79;80.94
29825;BME280;16713;52.916;12.834;2023-08-06T06:13:35;99932.47;;;17.00;80.45
29825;BME280;16713;52.916;12.834;2023-08-06T06:16:01;99932.41;;;16.74;80.57
29825;BME280;16713;52.916;12.834;2023-08-06T06:18:28;99926.69;;;16.91;80.09
29825;BME280;16713;52.916;12.834;2023-08-06T06:20:54;99926.25;;;16.93;79.73
29825;BME280;16713;52.916;12.834;2023-08-06T06:23:21;99922.50;;;16.76;81.13
29825;BME280;16713;52.916;12.834;2023-08-06T06:25:50;99920.25;;;16.68;81.17
29825;BME280;16713;52.916;12.834;2023-08-06T06:28:18;99922.88;;;16.78;80.70
29825;BME280;16713;52.916;12.834;2023-08-06T06:30:45;99926.59;;;16.95;80.80
29825;BME280;16713;52.916;12.834;2023-08-06T06:33:11;99922.28;;;16.94;80.14
29825;BME280;16713;52.916;12.834;2023-08-06T06:35:38;99921.84;;;16.69;81.26
29825;BME280;16713;52.916;12.834;2023-08-06T06:38:04;99923.53;;;16.89;80.78
29825;BME280;16713;52.916;12.834;2023-08-06T06:40:31;99922.88;;;17.08;79.65
29825;BME280;16713;52.916;12.834;2023-08-06T06:42:59;99920.34;;;17.21;79.69
29825;BME280;16713;52.916;12.834;2023-08-06T06:45:25;99923.19;;;16.84;80.56
29825;BME280;16713;52.916;12.834;2023-08-06T06:47:52;99925.59;;;17.12;80.46
29825;BME280;16713;52.916;12.834;2023-08-06T06:50:18;99923.66;;;17.09;79.99
29825;BME280;16713;52.916;12.834;2023-08-06T06:52:45;99924.47;;;17.06;79.89
29825;BME280;16713;52.916;12.834;2023-08-06T06:55:11;99916.16;;;16.79;80.88
29825;BME280;16713;52.916;12.834;2023-08-06T06:57:38;99926.00;;;17.10;80.38
29825;BME280;16713;52.916;12.834;2023-08-06T07:00:05;99931.91;;;17.12;79.81
29825;BME280;16713;52.916;12.834;2023-08-06T07:02:32;99923.09;;;17.21;80.60
29825;BME280;16713;52.916;12.834;2023-08-06T07:04:58;99926.50;;;17.32;80.38
29825;BME280;16713;52.916;12.834;2023-08-06T07:07:25;99929.69;;;17.30;80.32
29825;BME280;16713;52.916;12.834;2023-08-06T07:09:51;99927.13;;;17.16;80.91
29825;BME280;16713;52.916;12.834;2023-08-06T07:12:18;99922.63;;;17.26;80.80
29825;BME280;16713;52.916;12.834;2023-08-06T07:14:44;99918.22;;;17.28;80.93
29825;BME280;16713;52.916;12.834;2023-08-06T07:17:11;99918.13;;;17.35;80.92
29825;BME280;16713;52.916;12.834;2023-08-06T07:19:37;99925.09;;;17.47;81.11
29825;BME280;16713;52.916;12.834;2023-08-06T07:22:04;99916.44;;;17.41;80.39
29825;BME280;16713;52.916;12.834;2023-08-06T07:24:30;99918.56;;;17.34;80.46
29825;BME280;16713;52.916;12.834;2023-08-06T07:26:57;99918.78;;;17.43;80.91
29825;BME280;16713;52.916;12.834;2023-08-06T07:29:23;99920.63;;;17.53;80.08
29825;BME280;16713;52.916;12.834;2023-08-06T07:31:50;99924.63;;;17.52;80.47
29825;BME280;16713;52.916;12.834;2023-08-06T07:34:17;99915.44;;;17.55;80.49
29825;BME280;16713;52.916;12.834;2023-08-06T07:36:46;99915.69;;;17.41;81.28
29825;BME280;16713;52.916;12.834;2023-08-06T07:39:13;99914.38;;;17.49;81.45
29825;BME280;16713;52.916;12.834;2023-08-06T07:41:39;99915.91;;;17.50;81.76
29825;BME280;16713;52.916;12.834;2023-08-06T07:44:07;99915.25;;;17.42;81.55
29825;BME280;16713;52.916;12.834;2023-08-06T07:46:34;99918.09;;;17.39;82.01
29825;BME280;16713;52.916;12.834;2023-08-06T07:49:00;99919.19;;;17.68;80.57
29825;BME280;16713;52.916;12.834;2023-08-06T07:51:26;99923.25;;;17.37;81.50
29825;BME280;16713;52.916;12.834;2023-08-06T07:53:53;99918.31;;;17.48;81.74
29825;BME280;16713;52.916;12.834;2023-08-06T07:56:19;99912.81;;;17.44;81.04
29825;BME280;16713;52.916;12.834;2023-08-06T07:58:46;99914.78;;;17.48;81.40
29825;BME280;16713;52.916;12.834;2023-08-06T08:01:12;99910.91;;;17.41;80.91
29825;BME280;16713;52.916;12.834;2023-08-06T08:03:39;99911.22;;;17.47;80.83
29825;BME280;16713;52.916;12.834;2023-08-06T08:06:05;99918.94;;;17.59;81.28
29825;BME280;16713;52.916;12.834;2023-08-06T08:08:32;99904.47;;;17.71;80.90
29825;BME280;16713;52.916;12.834;2023-08-06T08:10:58;99905.44;;;17.61;81.82
29825;BME280;16713;52.916;12.834;2023-08-06T08:13:26;99912.31;;;17.76;81.31
29825;BME280;16713;52.916;12.834;2023-08-06T08:15:57;99909.78;;;17.85;80.97
29825;BME280;16713;52.916;12.834;2023-08-06T08:18:24;99914.25;;;17.79;80.44
29825;BME280;16713;52.916;12.834;2023-08-06T08:20:51;99908.44;;;17.70;81.91
29825;BME280;16713;52.916;12.834;2023-08-06T08:23:17;99907.97;;;17.75;81.30
29825;BME280;16713;52.916;12.834;2023-08-06T08:25:44;99902.53;;;17.91;80.26
29825;BME280;16713;52.916;12.834;2023-08-06T08:28:10;99902.50;;;17.72;80.62
29825;BME280;16713;52.916;12.834;2023-08-06T08:30:37;99899.63;;;17.75;80.81
29825;BME280;16713;52.916;12.834;2023-08-06T08:33:03;99890.78;;;17.84;80.88
29825;BME280;16713;52.916;12.834;2023-08-06T08:35:30;99893.91;;;17.86;81.06
29825;BME280;16713;52.916;12.834;2023-08-06T08:37:57;99895.47;;;17.87;80.25
29825;BME280;16713;52.916;12.834;2023-08-06T08:40:30;99887.88;;;17.91;81.56
29825;BME280;16713;52.916;12.834;2023-08-06T08:42:59;99880.41;;;17.65;81.08
29825;BME280;16713;52.916;12.834;2023-08-06T08:45:28;99886.78;;;17.85;80.96
29825;BME280;16713;52.916;12.834;2023-08-06T08:47:55;99876.59;;;17.78;80.37
29825;BME280;16713;52.916;12.834;2023-08-06T08:50:22;99871.06;;;17.78;80.75
29825;BME280;16713;52.916;12.834;2023-08-06T08:52:50;99879.47;;;17.94;80.36
29825;BME280;16713;52.916;12.834;2023-08-06T08:55:17;99873.56;;;17.96;81.08
29825;BME280;16713;52.916;12.834;2023-08-06T08:57:44;99871.31;;;17.64;82.16
29825;BME280;16713;52.916;12.834;2023-08-06T09:00:11;99872.00;;;17.91;80.97
29825;BME280;16713;52.916;12.834;2023-08-06T09:02:37;99866.66;;;18.04;80.40
29825;BME280;16713;52.916;12.834;2023-08-06T09:05:06;99872.56;;;18.06;81.10
29825;BME280;16713;52.916;12.834;2023-08-06T09:07:41;99868.78;;;18.16;81.30
29825;BME280;16713;52.916;12.834;2023-08-06T09:10:10;99865.88;;;18.03;80.68
29825;BME280;16713;52.916;12.834;2023-08-06T09:12:37;99859.53;;;18.03;81.82
29825;BME280;16713;52.916;12.834;2023-08-06T09:15:04;99855.56;;;18.04;80.12
29825;BME280;16713;52.916;12.834;2023-08-06T09:17:31;99857.78;;;17.89;80.86
29825;BME280;16713;52.916;12.834;2023-08-06T09:19:58;99849.31;;;17.54;80.27
29825;BME280;16713;52.916;12.834;2023-08-06T09:22:33;99850.97;;;17.94;80.17
29825;BME280;16713;52.916;12.834;2023-08-06T09:25:00;99846.28;;;17.68;80.42
29825;BME280;16713;52.916;12.834;2023-08-06T09:27:26;99843.78;;;17.96;80.46
29825;BME280;16713;52.916;12.834;2023-08-06T09:29:53;99850.78;;;18.04;79.24
29825;BME280;16713;52.916;12.834;2023-08-06T09:32:19;99846.31;;;17.87;79.70
29825;BME280;16713;52.916;12.834;2023-08-06T09:34:46;99840.47;;;18.05;79.47
29825;BME280;16713;52.916;12.834;2023-08-06T09:37:12;99843.94;;;18.09;79.35
29825;BME280;16713;52.916;12.834;2023-08-06T09:39:40;99844.25;;;18.14;79.24
29825;BME280;16713;52.916;12.834;2023-08-06T09:42:09;99832.91;;;17.63;80.47
29825;BME280;16713;52.916;12.834;2023-08-06T09:44:35;99835.34;;;18.03;78.85
29825;BME280;16713;52.916;12.834;2023-08-06T09:47:03;99839.47;;;18.15;79.51
29825;BME280;16713;52.916;12.834;2023-08-06T09:51:59;99828.56;;;18.04;79.98
29825;BME280;16713;52.916;12.834;2023-08-06T09:54:27;99832.84;;;18.09;78.83
29825;BME280;16713;52.916;12.834;2023-08-06T09:56:55;99835.34;;;18.23;78.81
29825;BME280;16713;52.916;12.834;2023-08-06T09:59:25;99832.47;;;18.26;78.65
29825;BME280;16713;52.916;12.834;2023-08-06T10:01:53;99825.38;;;18.25;79.61
29825;BME280;16713;52.916;12.834;2023-08-06T10:04:20;99822.25;;;18.23;79.12
29825;BME280;16713;52.916;12.834;2023-08-06T10:06:52;99822.09;;;18.30;79.67
29825;BME280;16713;52.916;12.834;2023-08-06T10:09:19;99816.63;;;18.27;78.83
29825;BME280;16713;52.916;12.834;2023-08-06T10:11:52;99811.44;;;18.29;79.92
29825;BME280;16713;52.916;12.834;2023-08-06T10:14:29;99811.91;;;18.43;79.61
29825;BME280;16713;52.916;12.834;2023-08-06T10:16:57;99810.84;;;18.37;79.65
29825;BME280;16713;52.916;12.834;2023-08-06T10:19:25;99808.78;;;18.41;79.22
29825;BME280;16713;52.916;12.834;2023-08-06T10:22:15;99809.38;;;18.49;78.68
29825;BME280;16713;52.916;12.834;2023-08-06T10:27:27;99812.47;;;18.54;78.63
29825;BME280;16713;52.916;12.834;2023-08-06T10:29:54;99814.81;;;18.56;78.55
29825;BME280;16713;52.916;12.834;2023-08-06T10:32:47;99810.72;;;18.60;77.81
29825;BME280;16713;52.916;12.834;2023-08-06T10:35:42;99802.59;;;18.34;78.91
29825;BME280;16713;52.916;12.834;2023-08-06T10:38:19;99804.06;;;18.58;77.67
29825;BME280;16713;52.916;12.834;2023-08-06T10:43:33;99804.53;;;18.72;76.82
29825;BME280;16713;52.916;12.834;2023-08-06T10:46:09;99806.56;;;18.68;76.77
29825;BME280;16713;52.916;12.834;2023-08-06T10:48:39;99803.84;;;18.13;78.69
29825;BME280;16713;52.916;12.834;2023-08-06T10:51:11;99806.03;;;18.57;77.13
29825;BME280;16713;52.916;12.834;2023-08-06T10:53:45;99805.88;;;18.64;77.34
29825;BME280;16713;52.916;12.834;2023-08-06T10:56:15;99812.88;;;18.72;77.43
29825;BME280;16713;52.916;12.834;2023-08-06T10:58:43;99803.25;;;18.77;76.38
29825;BME280;16713;52.916;12.834;2023-08-06T11:01:10;99798.59;;;18.70;76.78
29825;BME280;16713;52.916;12.834;2023-08-06T11:03:38;99792.91;;;18.77;76.01
29825;BME280;16713;52.916;12.834;2023-08-06T11:06:07;99793.59;;;18.81;76.06
29825;BME280;16713;52.916;12.834;2023-08-06T11:08:35;99792.81;;;18.81;76.40
29825;BME280;16713;52.916;12.834;2023-08-06T11:11:12;99793.16;;;18.83;76.25
29825;BME280;16713;52.916;12.834;2023-08-06T11:13:44;99796.66;;;18.87;75.97
29825;BME280;16713;52.916;12.834;2023-08-06T11:16:18;99796.13;;;18.40;76.61
29825;BME280;16713;52.916;12.834;2023-08-06T11:18:45;99775.91;;;17.81;77.88
29825;BME280;16713;52.916;12.834;2023-08-06T11:21:11;99790.81;;;18.46;76.30
29825;BME280;16713;52.916;12.834;2023-08-06T11:23:38;99788.25;;;18.55;76.80
29825;BME280;16713;52.916;12.834;2023-08-06T11:26:05;99786.25;;;18.55;76.05
29825;BME280;16713;52.916;12.834;2023-08-06T11:28:32;99786.66;;;18.73;75.40
29825;BME280;16713;52.916;12.834;2023-08-06T11:30:58;99764.63;;;17.69;77.42
29825;BME280;16713;52.916;12.834;2023-08-06T11:33:28;99769.94;;;18.02;76.68
29825;BME280;16713;52.916;12.834;2023-08-06T11:35:56;99773.41;;;18.26;75.68
29825;BME280;16713;52.916;12.834;2023-08-06T11:38:25;99774.63;;;18.60;75.02
29825;BME280;16713;52.916;12.834;2023-08-06T11:40:53;99771.75;;;18.64;74.70
29825;BME280;16713;52.916;12.834;2023-08-06T11:43:20;99764.91;;;18.68;74.22
29825;BME280;16713;52.916;12.834;2023-08-06T11:45:49;99743.47;;;17.98;75.73
29825;BME280;16713;52.916;12.834;2023-08-06T11:48:16;99753.94;;;18.45;76.09
29825;BME280;16713;52.916;12.834;2023-08-06T11:50:44;99753.06;;;18.32;75.72
29825;BME280;16713;52.916;12.834;2023-08-06T11:53:13;99753.84;;;18.49;75.48
29825;BME280;16713;52.916;12.834;2023-08-06T11:55:40;99748.41;;;18.45;75.28
29825;BME280;16713;52.916;12.834;2023-08-06T11:58:09;99765.34;;;18.67;73.96
29825;BME280;16713;52.916;12.834;2023-08-06T12:00:36;99749.63;;;18.60;74.18
29825;BME280;16713;52.916;12.834;2023-08-06T12:03:04;99745.25;;;18.08;75.10
29825;BME280;16713;52.916;12.834;2023-08-06T12:05:32;99750.53;;;18.38;74.62
29825;BME280;16713;52.916;12.834;2023-08-06T12:08:01;99747.53;;;18.48;74.91
29825;BME280;16713;52.916;12.834;2023-08-06T12:10:29;99737.03;;;18.20;75.61
29825;BME280;16713;52.916;12.834;2023-08-06T12:12:56;99743.38;;;18.56;75.70
29825;BME280;16713;52.916;12.834;2023-08-06T12:15:23;99730.25;;;18.05;75.86
29825;BME280;16713;52.916;12.834;2023-08-06T12:17:50;99721.69;;;17.57;78.37
29825;BME280;16713;52.916;12.834;2023-08-06T12:20:16;99729.41;;;18.08;77.29
29825;BME280;16713;52.916;12.834;2023-08-06T12:22:43;99735.88;;;18.37;76.27
29825;BME280;16713;52.916;12.834;2023-08-06T12:25:11;99717.41;;;17.33;78.59
29825;BME280;16713;52.916;12.834;2023-08-06T12:27:43;99721.25;;;17.39;79.57
29825;BME280;16713;52.916;12.834;2023-08-06T12:30:10;99714.44;;;17.20;79.93
29825;BME280;16713;52.916;12.834;2023-08-06T12:32:38;99715.97;;;17.44;80.45
29825;BME280;16713;52.916;12.834;2023-08-06T12:35:05;99712.16;;;17.58;80.17
29825;BME280;16713;52.916;12.834;2023-08-06T12:37:34;99712.84;;;17.62;80.00
29825;BME280;16713;52.916;12.834;2023-08-06T12:40:00;99705.47;;;17.36;80.69
29825;BME280;16713;52.916;12.834;2023-08-06T12:42:47;99699.16;;;17.55;78.63
29825;BME280;16713;52.916;12.834;2023-08-06T12:45:13;99697.50;;;17.38;79.41
29825;BME280;16713;52.916;12.834;2023-08-06T12:47:40;99703.06;;;17.77;78.54
29825;BME280;16713;52.916;12.834;2023-08-06T12:50:07;99693.50;;;17.78;77.52
29825;BME280;16713;52.916;12.834;2023-08-06T12:52:34;99694.88;;;17.70;77.49
29825;BME280;16713;52.916;12.834;2023-08-06T12:55:01;99707.72;;;18.19;77.21
29825;BME280;16713;52.916;12.834;2023-08-06T12:57:27;99708.97;;;18.34;75.58